ULPB

Details ICAO ULPB (PES)
Name BESOVETS
Region Russia
Timezone Europe/Moscow (UTC+3.0)
Plans Departing 28
Arriving 40
Stats Elevation 151 ft / 46 m (AMSL)
Location 61.885161° 34.154744°
Runways 1
Magnetic Variation 13.071° E
Sunrise 2018-05-26 00:25:42 UTC / 2018-05-26 03:25:42 Local
Sunset 2018-05-26 18:58:00 UTC / 2018-05-26 21:58:00 Local
Advertisement - Login to hide

Runways

ID Width Length Bearing (true) Bearing (mag) Surface Threshold Offset Overrun Length
02 157 ft / 48 m 8,192 ft / 2,497 m 23.19° 10.12° Concrete 0 ft / 0 m 0 ft / 0 m
20 157 ft / 48 m 8,192 ft / 2,497 m 203.21° 190.14° Concrete 0 ft / 0 m 0 ft / 0 m

Map

Weather


0- 5 10 15 20 25 30 35+ Temperature / ° C

Clouds and Precipitation
Forecast for 2018-05-26 00:00 UTC. Updated an hour ago

Ground ~20,000 ft ~40,000 ft Winds

METAR

ULPB 260000Z AUTO 21004MPS 9999 // NCD 09/04 Q1028 RMK QFE767/1023

TAF

Not found

Frequencies

Tower 128.00 MHz PETROZAVODSK TWR
Warning: Do not use this data for real-world aviation or navigation. No guarantee of current accuracy is given.